Airfield :
LOGIN :

Register | Disclaimer

   EN    FR    IT 

 










Legend :    VFR   Marginal VFR   IFR   Intensive IFR   Very Intensive IFR
Visi :
Ceiling :
>= 8 km
>= 3000ft
5 to 8 km
1000 to 3000 ft
1500m to 5 km
500 to 1000 ft
800 to 1500m
200 to 500 ft
< 800m
< 200 ft
Symbols :   Thunderstorms  Fog  Heavy snow  Heavy precipitations  Wind > 20 kt
SIGMETs :     Misc.  Thunderstorms  Icing  Turbulence  Mountain Waves  Volcanic Ashes






- Airport Elevation : 90 ft
- IATA code : NTE


LFRS - Nantes

CURRENT METAR :
  • 060530Z AUTO 23006KT 9999 -RA OVC005 13/12 Q1016 TEMPO 3000 BR

EXPIRED METARs :
  • 060500Z AUTO 21007KT 180V240 9999 +RADZ OVC005 13/12 Q1015 TEMPO 3000 BR
  • 060430Z AUTO 21008KT 9999 OVC007/// ///TCU 13/12 Q1015 TEMPO 3000 BR BKN003
  • 060400Z AUTO 20009KT 9999 BKN009 BKN014 OVC066 13/11 Q1014 TEMPO 4500 -RA BECMG NSC
  • 060330Z AUTO 21006KT 9999 BKN016 BKN021 OVC062 13/11 Q1014 TEMPO 4500 -RA
  • 060300Z AUTO 20006KT 9999 BKN019 BKN054 BKN088 13/10 Q1014 TEMPO 4500 -RA
  • 060230Z AUTO 19005KT 9999 FEW048 BKN054 BKN082 12/10 Q1014 TEMPO 4500 -RA

TAF TAF LFRS
Valid from the 06 at 06:00 until the 07 at 12:00 UTC


060500Z 0606/0712 17008KT 9999 BKN007 BKN040
TEMPO 0608/0611 4500 BR BKN004
BECMG 0609/0611 VRB03KT SCT018 BKN035
PROB30
TEMPO 0700/0703 3000 BR
BECMG 0707/0709 09010KT
ATIS : +33 2 40 05 12 74



MET'MAP, your aeronautical weather chart ! - Copyright ORBIFLY December 2007 - Disclaimer

ORBIFLY MET'MAP TEAM :

Programming & Development : Alexandra Zaïnal
Concept & original design : Baudouin d'Aumeries
Assistance for programming : Marc-Olivier Méhu
Technical & hardware support : Manuel Goepfert

Contact : metmap@orbifly.com




SOURCES & CREDITS :

   NOAA